createdAt,value
2019-05-05T00:03:28.703Z,13.35
2019-05-05T00:08:47.016Z,18.65
2019-05-05T00:14:05.441Z,16.32
2019-05-05T00:19:29.460Z,20.17
2019-05-05T00:24:26.147Z,17.00
2019-05-05T00:29:34.702Z,14.40
2019-05-05T00:34:50.271Z,16.48
2019-05-05T00:40:00.170Z,19.60
2019-05-05T00:45:08.478Z,15.15
2019-05-05T00:50:25.099Z,13.53
2019-05-05T00:55:34.949Z,13.38
2019-05-05T01:00:56.602Z,10.25
2019-05-05T01:06:04.557Z,16.62
2019-05-05T01:11:09.479Z,18.85
2019-05-05T01:16:16.537Z,14.25
2019-05-05T01:21:25.391Z,15.05
2019-05-05T01:26:32.109Z,17.42
2019-05-05T01:31:45.060Z,12.75
2019-05-05T01:36:53.896Z,8.40
2019-05-05T01:41:58.385Z,11.05
2019-05-05T01:47:05.138Z,15.25
2019-05-05T01:52:14.890Z,13.48
2019-05-05T01:57:21.328Z,18.75
2019-05-05T02:02:34.331Z,18.17
2019-05-05T02:07:40.344Z,15.83
2019-05-05T02:12:50.608Z,14.25
2019-05-05T02:17:58.493Z,18.65
2019-05-05T02:23:05.642Z,40.55
2019-05-05T02:28:15.042Z,22.58
2019-05-05T02:33:21.608Z,30.02
2019-05-05T02:38:26.835Z,23.90
2019-05-05T02:43:36.062Z,19.95
2019-05-05T02:48:45.028Z,14.28
2019-05-05T02:53:56.069Z,20.97
2019-05-05T02:59:04.384Z,14.98
2019-05-05T03:04:16.626Z,19.40
2019-05-05T03:09:24.758Z,18.07
2019-05-05T03:14:30.660Z,13.67
2019-05-05T03:19:38.547Z,15.85
2019-05-05T03:24:49.311Z,17.50
2019-05-05T03:29:53.573Z,17.52
2019-05-05T03:35:04.383Z,17.17
2019-05-05T03:40:19.227Z,18.77
2019-05-05T03:45:24.499Z,21.15
2019-05-05T03:50:33.997Z,18.50
2019-05-05T03:55:43.954Z,21.60
2019-05-05T04:00:59.660Z,19.12
2019-05-05T04:06:29.585Z,20.15
2019-05-05T04:11:19.233Z,21.17
2019-05-05T04:17:10.061Z,25.50
2019-05-05T04:21:38.440Z,19.30
2019-05-05T04:26:47.657Z,24.77
2019-05-05T04:31:55.455Z,21.33
2019-05-05T04:37:08.464Z,22.07
2019-05-05T04:42:13.988Z,24.23
2019-05-05T04:47:24.536Z,26.05
2019-05-05T04:57:58.647Z,26.40
2019-05-05T05:02:58.028Z,27.67
2019-05-05T05:08:14.862Z,26.17
2019-05-05T05:13:19.237Z,24.77
2019-05-05T05:18:34.396Z,25.57
2019-05-05T05:23:40.428Z,25.80
2019-05-05T05:28:44.680Z,32.03
2019-05-05T05:33:52.130Z,33.53
2019-05-05T05:39:03.768Z,26.62
2019-05-05T05:44:17.108Z,28.42
2019-05-05T06:00:06.729Z,30.82
2019-05-05T06:05:23.852Z,25.60
2019-05-05T06:10:54.629Z,32.07
2019-05-05T06:15:47.107Z,24.27
2019-05-05T06:20:53.355Z,26.27
2019-05-05T06:25:57.407Z,21.80
2019-05-05T06:31:04.982Z,27.02
2019-05-05T06:36:09.282Z,24.75
2019-05-05T06:41:25.758Z,24.07
2019-05-05T06:46:48.061Z,21.27
2019-05-05T06:51:54.513Z,19.23
2019-05-05T06:56:58.361Z,19.05
2019-05-05T07:02:04.253Z,20.08
2019-05-05T07:07:10.507Z,20.30
2019-05-05T07:12:14.923Z,24.55
2019-05-05T07:17:19.155Z,16.97
2019-05-05T07:22:24.391Z,23.35
2019-05-05T07:27:30.516Z,23.67
2019-05-05T07:32:34.752Z,22.00
2019-05-05T07:37:39.022Z,20.08
2019-05-05T07:42:44.067Z,24.18
2019-05-05T07:47:48.477Z,27.30
2019-05-05T07:52:54.549Z,18.42
2019-05-05T07:57:58.689Z,22.22
2019-05-05T08:03:03.757Z,24.82
2019-05-05T08:08:08.106Z,19.65
2019-05-05T08:13:14.061Z,17.05
2019-05-05T08:18:20.151Z,16.80
2019-05-05T08:23:31.910Z,16.30
2019-05-05T08:28:36.698Z,16.60
2019-05-05T08:33:40.953Z,22.70
2019-05-05T08:38:45.385Z,18.50
2019-05-05T08:43:49.616Z,15.53
2019-05-05T08:48:53.881Z,19.17
2019-05-05T08:53:58.181Z,16.60
2019-05-05T08:59:03.635Z,17.85
2019-05-05T09:04:08.050Z,17.90
2019-05-05T09:09:14.241Z,16.87
2019-05-05T09:14:18.318Z,13.35
2019-05-05T09:19:23.993Z,14.13
2019-05-05T09:24:34.080Z,17.05
2019-05-05T09:29:43.984Z,15.85
2019-05-05T09:34:48.600Z,15.03
2019-05-05T09:39:55.815Z,17.57
2019-05-05T09:45:00.034Z,13.45
2019-05-05T09:50:07.921Z,15.98
2019-05-05T09:55:13.827Z,13.55
2019-05-05T10:00:18.058Z,17.20
2019-05-05T10:05:23.614Z,13.53
2019-05-05T10:10:28.007Z,12.95
2019-05-05T10:15:32.205Z,16.07
2019-05-05T10:20:36.410Z,18.98
2019-05-05T10:25:44.890Z,22.37
2019-05-05T10:30:49.174Z,16.75
2019-05-05T10:35:54.120Z,12.58
2019-05-05T10:40:58.520Z,16.57
2019-05-05T10:46:03.867Z,15.40
2019-05-05T10:51:08.209Z,13.10
2019-05-05T10:56:13.715Z,17.40
2019-05-05T11:01:18.117Z,13.78
2019-05-05T11:06:22.330Z,18.12
2019-05-05T11:11:28.175Z,17.75
2019-05-05T11:16:32.385Z,15.55
2019-05-05T11:21:36.624Z,20.35
2019-05-05T11:26:40.903Z,20.37
2019-05-05T11:31:45.206Z,17.92
2019-05-05T11:36:57.090Z,17.20
2019-05-05T11:42:01.321Z,22.73
2019-05-05T11:47:24.959Z,19.65
2019-05-05T11:52:29.240Z,18.00
2019-05-05T11:57:33.466Z,16.48
2019-05-05T12:02:37.849Z,11.18
2019-05-05T12:07:43.675Z,17.15
2019-05-05T12:12:48.094Z,15.08
2019-05-05T12:17:54.435Z,15.08
2019-05-05T12:22:59.960Z,15.28
2019-05-05T12:28:05.855Z,15.90
2019-05-05T12:33:10.218Z,16.05
2019-05-05T12:38:14.512Z,22.15
2019-05-05T12:43:18.702Z,22.58
2019-05-05T12:48:24.569Z,20.20
2019-05-05T12:53:28.780Z,19.95
2019-05-05T12:58:33.567Z,18.52
2019-05-05T13:03:38.017Z,17.70
2019-05-05T13:08:44.378Z,15.30
2019-05-05T13:13:48.560Z,13.98
2019-05-05T13:18:53.909Z,20.10
2019-05-05T13:24:04.393Z,16.12
2019-05-05T13:29:08.786Z,15.08
2019-05-05T13:34:13.673Z,15.85
2019-05-05T13:39:18.209Z,15.68
2019-05-05T13:44:27.127Z,19.23
2019-05-05T13:49:35.781Z,12.85
2019-05-05T13:54:40.065Z,12.80
2019-05-05T13:59:44.534Z,12.05
2019-05-05T14:04:48.995Z,15.85
2019-05-05T14:09:54.921Z,16.05
2019-05-05T14:14:59.756Z,12.23
2019-05-05T14:20:11.698Z,12.00
2019-05-05T14:25:13.848Z,14.75
2019-05-05T14:30:38.632Z,14.15
2019-05-05T14:35:50.464Z,12.63
2019-05-05T14:40:54.726Z,15.18
2019-05-05T14:45:58.934Z,14.73
2019-05-05T14:51:03.999Z,16.32
2019-05-05T14:56:08.374Z,14.33
2019-05-05T15:01:14.406Z,9.95
2019-05-05T15:06:26.820Z,12.35
2019-05-05T15:11:33.860Z,14.17
2019-05-05T15:16:38.125Z,12.75
2019-05-05T15:21:44.329Z,14.68
2019-05-05T15:26:52.098Z,15.60
2019-05-05T15:31:54.674Z,11.73
2019-05-05T15:36:58.991Z,13.93
2019-05-05T15:42:04.665Z,13.03
2019-05-05T15:47:09.002Z,15.38
2019-05-05T15:52:13.733Z,15.78
2019-05-05T15:57:18.330Z,13.50
2019-05-05T16:02:23.990Z,14.40
2019-05-05T16:07:28.433Z,15.60
2019-05-05T16:12:36.539Z,11.48
2019-05-05T16:17:46.997Z,12.70
2019-05-05T16:23:11.135Z,11.20
2019-05-05T16:28:15.460Z,13.05
2019-05-05T16:33:21.130Z,9.75
2019-05-05T16:38:25.431Z,14.20
2019-05-05T16:43:29.305Z,12.18
2019-05-05T16:48:34.369Z,13.28
2019-05-05T16:53:38.924Z,14.38
2019-05-05T16:58:45.106Z,13.53
2019-05-05T17:03:49.208Z,11.60
2019-05-05T17:08:53.506Z,14.73
2019-05-05T17:14:11.513Z,13.15
2019-05-05T17:19:17.616Z,12.60
2019-05-05T17:24:23.754Z,10.88
2019-05-05T17:29:27.832Z,13.35
2019-05-05T17:34:33.934Z,19.65
2019-05-05T17:39:39.771Z,14.80
2019-05-05T17:44:51.444Z,12.85
2019-05-05T17:49:59.907Z,13.43
2019-05-05T17:55:27.238Z,12.13
2019-05-05T18:00:34.081Z,13.75
2019-05-05T18:05:55.739Z,16.55
2019-05-05T18:11:01.637Z,13.68
2019-05-05T18:16:06.016Z,10.88
2019-05-05T18:21:10.242Z,12.75
2019-05-05T18:26:14.484Z,11.45
2019-05-05T18:31:18.786Z,15.45
2019-05-05T18:36:23.103Z,13.18
2019-05-05T18:41:46.878Z,17.20
2019-05-05T18:47:13.137Z,16.62
2019-05-05T18:52:16.728Z,14.80
2019-05-05T18:57:20.974Z,16.37
2019-05-05T19:02:44.937Z,12.58
2019-05-05T19:08:08.836Z,14.38
2019-05-05T19:13:13.639Z,17.37
2019-05-05T19:18:18.018Z,17.70
2019-05-05T19:23:22.225Z,13.85
2019-05-05T19:28:44.383Z,22.52
2019-05-05T19:33:56.599Z,17.45
2019-05-05T19:42:29.654Z,14.40
2019-05-05T19:44:36.589Z,15.50
2019-05-05T19:49:44.828Z,17.07
2019-05-05T19:54:51.784Z,19.17
2019-05-05T20:00:00.731Z,14.45
2019-05-05T20:05:14.095Z,19.35
2019-05-05T20:10:27.647Z,12.60
2019-05-05T20:15:39.754Z,18.85
2019-05-05T20:20:45.618Z,17.07
2019-05-05T20:31:24.292Z,18.37
2019-05-05T20:37:14.951Z,17.80
2019-05-05T20:53:50.124Z,20.10
2019-05-05T21:10:01.327Z,21.75
2019-05-05T21:15:15.500Z,26.70
2019-05-05T21:21:24.797Z,23.38
2019-05-05T21:25:54.895Z,18.45
2019-05-05T21:31:00.826Z,21.95
2019-05-05T21:36:14.545Z,22.62
2019-05-05T21:41:26.745Z,21.37
2019-05-05T21:46:34.749Z,22.65
2019-05-05T21:51:49.300Z,24.35
2019-05-05T21:58:35.495Z,25.10
2019-05-05T22:02:23.553Z,22.75
2019-05-05T22:07:26.235Z,22.95
2019-05-05T22:19:20.430Z,28.27
2019-05-05T22:22:58.331Z,35.03
2019-05-05T22:28:15.981Z,22.22
2019-05-05T22:33:21.215Z,23.12
2019-05-05T22:38:28.612Z,25.55
2019-05-05T22:43:35.401Z,20.10
2019-05-05T22:48:44.014Z,19.92
2019-05-05T22:53:50.123Z,20.12
2019-05-05T22:58:57.790Z,19.48
2019-05-05T23:04:15.103Z,19.77
2019-05-05T23:09:19.546Z,21.20
2019-05-05T23:14:34.094Z,19.30
2019-05-05T23:20:00.582Z,19.75
2019-05-05T23:25:29.477Z,22.70
2019-05-05T23:30:41.842Z,21.50
2019-05-05T23:35:47.583Z,21.93
2019-05-05T23:40:56.852Z,22.45
2019-05-05T23:46:05.889Z,21.80
2019-05-05T23:51:16.772Z,23.47
2019-05-05T23:56:28.217Z,22.07
